createdAt,value
2022-10-05T00:00:53.564Z,63.96
2022-10-05T00:01:53.632Z,63.96
2022-10-05T00:02:53.537Z,63.87
2022-10-05T00:03:53.616Z,63.99
2022-10-05T00:05:53.564Z,64.24
2022-10-05T00:06:53.585Z,64.43
2022-10-05T00:09:53.558Z,64.51
2022-10-05T00:10:53.554Z,64.56
2022-10-05T00:11:53.584Z,64.48
2022-10-05T00:12:53.583Z,64.37
2022-10-05T00:14:53.654Z,64.52
2022-10-05T00:15:53.580Z,64.63
2022-10-05T00:16:53.697Z,64.65
2022-10-05T00:17:53.585Z,64.67
2022-10-05T00:18:58.365Z,64.91
2022-10-05T00:20:53.602Z,64.84
2022-10-05T00:21:53.583Z,64.68
2022-10-05T00:23:53.619Z,64.41
2022-10-05T00:24:53.608Z,64.51
2022-10-05T00:25:53.610Z,64.62
2022-10-05T00:26:57.826Z,64.69
2022-10-05T00:28:53.625Z,64.69
2022-10-05T00:29:53.630Z,64.71
2022-10-05T00:30:53.621Z,64.58
2022-10-05T00:32:58.690Z,64.36
2022-10-05T00:33:53.617Z,64.40
2022-10-05T00:34:53.636Z,64.40
2022-10-05T00:35:53.628Z,64.46
2022-10-05T00:36:53.637Z,64.50
2022-10-05T00:39:53.672Z,64.47
2022-10-05T00:40:53.640Z,64.47
2022-10-05T00:44:53.653Z,64.22
2022-10-05T00:45:53.747Z,64.15
2022-10-05T00:47:53.657Z,63.94
2022-10-05T00:48:53.656Z,63.82
2022-10-05T00:49:53.677Z,63.94
2022-10-05T00:54:53.698Z,64.66
2022-10-05T00:55:58.590Z,64.37
2022-10-05T00:56:53.662Z,64.37
2022-10-05T00:57:53.706Z,64.30
2022-10-05T00:58:53.679Z,64.30
2022-10-05T00:59:53.672Z,64.27
2022-10-05T01:00:53.743Z,64.19
2022-10-05T01:01:53.772Z,64.07
2022-10-05T01:02:53.762Z,63.91
2022-10-05T01:03:53.708Z,63.92
2022-10-05T01:04:53.692Z,63.93
2022-10-05T01:05:53.702Z,63.93
2022-10-05T01:06:53.699Z,63.93
2022-10-05T01:07:53.709Z,64.01
2022-10-05T01:08:53.712Z,64.06
2022-10-05T01:09:53.728Z,64.20
2022-10-05T01:12:53.708Z,64.12
2022-10-05T01:13:53.755Z,64.12
2022-10-05T01:14:53.722Z,64.11
2022-10-05T01:15:53.746Z,64.17
2022-10-05T01:16:53.783Z,64.20
2022-10-05T01:17:53.734Z,64.20
2022-10-05T01:19:53.738Z,64.40
2022-10-05T01:21:53.748Z,64.51
2022-10-05T01:22:53.753Z,64.51
2022-10-05T01:23:53.762Z,64.46
2022-10-05T01:25:53.769Z,64.32
2022-10-05T01:26:53.757Z,64.32
2022-10-05T01:28:53.769Z,64.51
2022-10-05T01:29:53.765Z,64.51
2022-10-05T01:30:53.756Z,64.56
2022-10-05T01:31:53.871Z,64.87
2022-10-05T01:34:53.782Z,64.95
2022-10-05T01:35:53.774Z,64.93
2022-10-05T01:36:53.785Z,65.00
2022-10-05T01:38:53.822Z,64.79
2022-10-05T01:39:53.805Z,64.82
2022-10-05T01:40:53.791Z,64.84
2022-10-05T01:41:53.809Z,64.84
2022-10-05T01:42:53.792Z,64.84
2022-10-05T01:43:53.812Z,64.72
2022-10-05T01:45:53.899Z,64.58
2022-10-05T01:46:53.800Z,64.58
2022-10-05T01:47:53.788Z,64.37
2022-10-05T01:48:53.795Z,64.49
2022-10-05T01:49:53.819Z,64.71
2022-10-05T01:50:53.830Z,64.67
2022-10-05T01:52:53.841Z,64.55
2022-10-05T01:53:53.804Z,64.55
2022-10-05T01:54:53.820Z,64.59
2022-10-05T01:55:53.839Z,64.65
2022-10-05T01:56:53.834Z,64.65
2022-10-05T01:57:53.823Z,64.62
2022-10-05T01:58:53.832Z,64.62
2022-10-05T01:59:53.857Z,64.45
2022-10-05T02:00:53.899Z,64.45
2022-10-05T02:01:53.873Z,64.46
2022-10-05T02:02:53.852Z,64.46
2022-10-05T02:05:53.847Z,64.50
2022-10-05T02:06:53.975Z,64.64
2022-10-05T02:07:53.861Z,64.69
2022-10-05T02:10:53.870Z,64.75
2022-10-05T02:11:53.873Z,65.03
2022-10-05T02:12:53.887Z,65.15
2022-10-05T02:13:53.879Z,65.15
2022-10-05T02:15:53.950Z,64.95
2022-10-05T02:17:53.927Z,64.61
2022-10-05T02:18:53.890Z,64.61
2022-10-05T02:19:53.892Z,64.66
2022-10-05T02:20:53.900Z,64.47
2022-10-05T02:21:53.895Z,64.40
2022-10-05T02:22:53.894Z,64.34
2022-10-05T02:23:53.912Z,64.34
2022-10-05T02:24:53.918Z,64.27
2022-10-05T02:25:53.909Z,64.36
2022-10-05T02:26:53.897Z,64.37
2022-10-05T02:27:53.935Z,64.37
2022-10-05T02:29:53.921Z,64.31
2022-10-05T02:30:53.910Z,64.31
2022-10-05T02:31:54.003Z,64.41
2022-10-05T02:32:53.901Z,64.41
2022-10-05T02:33:53.908Z,64.38
2022-10-05T02:34:53.925Z,64.39
2022-10-05T02:35:53.933Z,64.55
2022-10-05T02:36:53.939Z,64.48
2022-10-05T02:37:53.932Z,64.51
2022-10-05T02:38:53.930Z,64.51
2022-10-05T02:39:53.943Z,64.49
2022-10-05T02:40:53.952Z,64.50
2022-10-05T02:43:54.245Z,64.52
2022-10-05T02:44:53.942Z,64.53
2022-10-05T02:45:54.039Z,64.53
2022-10-05T02:46:57.175Z,64.43
2022-10-05T02:47:53.942Z,64.37
2022-10-05T02:48:53.961Z,64.31
2022-10-05T02:49:53.953Z,64.26
2022-10-05T02:50:53.965Z,64.33
2022-10-05T02:51:53.955Z,64.20
2022-10-05T02:52:53.968Z,64.25
2022-10-05T02:53:53.977Z,64.18
2022-10-05T02:54:53.961Z,64.22
2022-10-05T02:55:53.979Z,64.22
2022-10-05T02:57:53.970Z,64.24
2022-10-05T02:58:53.991Z,64.30
2022-10-05T02:59:53.982Z,64.30
2022-10-05T03:00:54.037Z,64.37
2022-10-05T03:01:54.014Z,64.37
2022-10-05T03:02:53.992Z,64.33
2022-10-05T03:03:53.997Z,64.36
2022-10-05T03:05:53.996Z,64.45
2022-10-05T03:06:53.997Z,64.34
2022-10-05T03:07:54.016Z,64.36
2022-10-05T03:10:54.020Z,64.35
2022-10-05T03:12:54.059Z,64.21
2022-10-05T03:13:54.013Z,64.22
2022-10-05T03:14:54.016Z,64.22
2022-10-05T03:15:54.134Z,64.08
2022-10-05T03:16:54.046Z,64.07
2022-10-05T03:17:54.027Z,64.02
2022-10-05T03:18:54.043Z,64.12
2022-10-05T03:19:54.037Z,64.12
2022-10-05T03:20:54.487Z,64.06
2022-10-05T03:21:54.036Z,64.06
2022-10-05T03:22:54.090Z,64.05
2022-10-05T03:23:54.046Z,64.12
2022-10-05T03:27:54.158Z,64.10
2022-10-05T03:28:54.082Z,64.05
2022-10-05T03:29:54.071Z,64.05
2022-10-05T03:30:54.141Z,64.20
2022-10-05T03:31:54.071Z,64.27
2022-10-05T03:33:54.077Z,64.16
2022-10-05T03:34:54.067Z,64.16
2022-10-05T03:35:54.087Z,64.30
2022-10-05T03:38:54.073Z,64.31
2022-10-05T03:40:54.102Z,64.30
2022-10-05T03:41:54.088Z,64.35
2022-10-05T03:47:57.715Z,64.17
2022-10-05T03:48:54.124Z,64.17
2022-10-05T03:51:54.131Z,64.47
2022-10-05T03:52:54.102Z,64.47
2022-10-05T03:53:54.110Z,64.33
2022-10-05T03:55:54.136Z,64.42
2022-10-05T04:01:54.217Z,64.37
2022-10-05T04:02:54.244Z,64.39
2022-10-05T04:06:54.153Z,64.38
2022-10-05T04:08:54.155Z,64.37
2022-10-05T04:09:54.166Z,64.47
2022-10-05T04:14:54.185Z,64.39
2022-10-05T04:17:54.184Z,64.35
2022-10-05T04:18:54.197Z,64.30
2022-10-05T04:19:54.189Z,64.30
2022-10-05T04:20:54.200Z,64.62
2022-10-05T04:21:54.172Z,64.62
2022-10-05T04:22:54.196Z,64.72
2022-10-05T04:23:54.170Z,64.64
2022-10-05T04:24:54.200Z,64.62
2022-10-05T04:26:54.202Z,64.58
2022-10-05T04:32:54.230Z,64.33
2022-10-05T04:34:54.944Z,64.31
2022-10-05T04:36:54.205Z,64.24
2022-10-05T04:39:54.215Z,64.79
2022-10-05T04:40:54.222Z,65.36
2022-10-05T04:41:54.231Z,65.14
2022-10-05T04:42:54.252Z,65.11
2022-10-05T04:43:54.225Z,65.11
2022-10-05T04:44:58.982Z,65.12
2022-10-05T04:45:54.237Z,65.22
2022-10-05T04:46:54.311Z,65.08
2022-10-05T04:47:54.275Z,65.10
2022-10-05T04:48:54.242Z,65.10
2022-10-05T04:49:54.238Z,65.34
2022-10-05T04:50:54.254Z,65.23
2022-10-05T04:51:54.254Z,64.90
2022-10-05T04:54:54.272Z,65.06
2022-10-05T04:55:54.290Z,65.41
2022-10-05T04:56:54.277Z,65.41
2022-10-05T04:58:54.298Z,64.98
2022-10-05T04:59:54.286Z,64.68
2022-10-05T05:00:54.326Z,64.68
2022-10-05T05:01:54.288Z,64.45
2022-10-05T05:02:54.286Z,64.29
2022-10-05T05:03:54.346Z,64.16
2022-10-05T05:04:54.289Z,64.16
2022-10-05T05:06:15.877Z,64.14
2022-10-05T05:06:54.310Z,64.09
2022-10-05T05:07:54.302Z,64.09
2022-10-05T05:08:54.301Z,64.03
2022-10-05T05:09:54.295Z,64.15
2022-10-05T05:10:54.292Z,64.27
2022-10-05T05:11:55.180Z,64.35
2022-10-05T05:12:54.295Z,64.35
2022-10-05T05:13:54.325Z,64.37
2022-10-05T05:14:54.302Z,64.39
2022-10-05T05:15:54.338Z,64.45
2022-10-05T05:16:54.305Z,64.45
2022-10-05T05:17:54.328Z,64.49
2022-10-05T05:18:54.318Z,64.60
2022-10-05T05:19:54.330Z,64.50
2022-10-05T05:20:54.324Z,64.50
2022-10-05T05:21:54.337Z,64.35
2022-10-05T05:22:54.358Z,64.23
2022-10-05T05:23:54.323Z,64.23
2022-10-05T05:24:54.337Z,64.25
2022-10-05T05:25:54.329Z,64.21
2022-10-05T05:26:54.333Z,64.26
2022-10-05T05:30:54.418Z,64.11
2022-10-05T05:31:54.357Z,64.03
2022-10-05T05:32:54.345Z,64.03
2022-10-05T05:33:54.357Z,64.04
2022-10-05T05:34:54.357Z,64.04
2022-10-05T05:40:54.397Z,64.17
2022-10-05T05:41:54.379Z,64.17
2022-10-05T05:42:54.377Z,64.17
2022-10-05T05:43:54.376Z,64.17
2022-10-05T05:44:54.395Z,64.32
2022-10-05T05:47:03.391Z,64.65
2022-10-05T05:47:54.409Z,64.70
2022-10-05T05:48:55.432Z,64.77
2022-10-05T05:49:54.405Z,64.77
2022-10-05T05:51:54.414Z,64.88
2022-10-05T05:53:54.414Z,64.86
2022-10-05T05:54:54.412Z,64.81
2022-10-05T05:55:54.401Z,64.81
2022-10-05T05:56:54.429Z,64.65
2022-10-05T08:28:54.906Z,19.36
2022-10-05T08:29:50.641Z,19.22
2022-10-05T08:30:50.670Z,19.25
2022-10-05T08:31:50.998Z,19.25
2022-10-05T08:32:50.639Z,19.14
2022-10-05T08:33:50.666Z,18.70
2022-10-05T08:34:50.664Z,18.89
2022-10-05T08:35:50.647Z,18.98
2022-10-05T08:36:53.892Z,18.88
2022-10-05T08:37:50.660Z,18.65
2022-10-05T08:38:50.666Z,18.62
2022-10-05T08:40:50.677Z,18.48
2022-10-05T08:43:50.683Z,18.50
2022-10-05T08:44:50.702Z,18.25
2022-10-05T08:45:50.726Z,18.25
2022-10-05T08:46:50.669Z,18.34
2022-10-05T08:47:50.692Z,17.79
2022-10-05T08:48:50.685Z,17.79
2022-10-05T08:49:50.806Z,17.74
2022-10-05T08:50:50.678Z,17.74
2022-10-05T08:51:51.114Z,17.80
2022-10-05T08:53:50.705Z,17.34
2022-10-05T08:54:50.688Z,17.35
2022-10-05T08:55:50.897Z,17.22
2022-10-05T08:56:50.725Z,17.22
2022-10-05T08:57:51.190Z,17.22
2022-10-05T08:58:50.726Z,17.41
2022-10-05T08:59:50.696Z,17.36
2022-10-05T09:00:54.340Z,17.25
2022-10-05T09:01:51.044Z,17.24
2022-10-05T09:02:50.792Z,17.24
2022-10-05T09:03:50.735Z,17.05
2022-10-05T09:04:50.738Z,17.05
2022-10-05T09:05:50.881Z,17.07
2022-10-05T09:06:50.900Z,16.95
2022-10-05T09:07:50.859Z,16.74
2022-10-05T09:08:50.889Z,16.70
2022-10-05T09:09:50.863Z,16.80
2022-10-05T09:10:50.877Z,16.57
2022-10-05T09:11:51.001Z,16.64
2022-10-05T09:12:50.940Z,16.55
2022-10-05T09:13:50.948Z,16.51
2022-10-05T09:15:01.489Z,16.34
2022-10-05T09:15:50.993Z,16.17
2022-10-05T09:16:50.894Z,16.10
2022-10-05T09:18:50.893Z,15.82
2022-10-05T09:19:50.943Z,15.85
2022-10-05T09:20:50.982Z,16.26
2022-10-05T09:21:50.946Z,16.45
2022-10-05T09:22:50.986Z,16.56
2022-10-05T09:23:50.909Z,16.26
2022-10-05T09:24:50.968Z,16.59
2022-10-05T09:25:50.910Z,16.80
2022-10-05T09:26:50.790Z,16.80
2022-10-05T09:27:50.801Z,17.60
2022-10-05T09:28:50.801Z,17.61
2022-10-05T09:29:50.809Z,18.25
2022-10-05T09:30:50.875Z,18.49
2022-10-05T09:32:03.539Z,19.28
2022-10-05T09:32:50.806Z,19.55
2022-10-05T09:33:50.838Z,20.00
2022-10-05T09:34:50.819Z,20.56
2022-10-05T09:35:50.804Z,21.38
2022-10-05T09:36:50.824Z,21.38
2022-10-05T09:37:54.703Z,22.34
2022-10-05T09:38:50.831Z,22.34
2022-10-05T09:39:50.848Z,21.99
2022-10-05T09:40:50.827Z,21.99
2022-10-05T09:41:50.854Z,22.79
2022-10-05T09:42:50.832Z,22.44
2022-10-05T09:43:50.833Z,23.47
2022-10-05T09:44:50.842Z,23.82
2022-10-05T09:45:50.899Z,23.86
2022-10-05T09:46:50.855Z,24.32
2022-10-05T09:47:50.878Z,24.42
2022-10-05T09:48:50.851Z,24.42
2022-10-05T09:49:50.857Z,24.82
2022-10-05T09:50:50.852Z,25.17
2022-10-05T09:51:50.857Z,25.39
2022-10-05T09:52:50.860Z,25.39
2022-10-05T09:53:50.889Z,25.97
2022-10-05T09:54:50.873Z,26.20
2022-10-05T09:55:50.864Z,26.42
2022-10-05T09:56:50.880Z,26.74
2022-10-05T09:57:53.102Z,27.16
2022-10-05T09:58:50.881Z,27.16
2022-10-05T09:59:50.875Z,27.01
2022-10-05T10:00:58.821Z,27.00
2022-10-05T10:01:51.480Z,27.00
2022-10-05T10:02:51.003Z,26.92
2022-10-05T10:03:50.897Z,27.24
2022-10-05T10:04:50.887Z,27.24
2022-10-05T10:05:50.894Z,27.50
2022-10-05T10:06:50.900Z,27.57
2022-10-05T10:08:50.895Z,28.49
2022-10-05T10:09:50.912Z,28.07
2022-10-05T10:10:50.911Z,28.38
2022-10-05T10:11:50.894Z,28.38
2022-10-05T10:12:50.908Z,29.17
2022-10-05T10:13:50.922Z,29.17
2022-10-05T10:14:58.230Z,27.90
2022-10-05T10:15:51.047Z,28.08
2022-10-05T10:16:50.918Z,28.43
2022-10-05T10:17:50.923Z,28.43
2022-10-05T10:18:50.935Z,28.90
2022-10-05T10:19:50.939Z,29.66
2022-10-05T10:20:50.938Z,29.83
2022-10-05T10:21:50.957Z,29.78
2022-10-05T10:22:50.948Z,30.25
2022-10-05T10:23:50.934Z,30.38
2022-10-05T10:24:50.953Z,29.48
2022-10-05T10:25:50.963Z,29.73
2022-10-05T10:26:50.965Z,30.32
2022-10-05T10:27:52.539Z,30.37
2022-10-05T10:28:50.943Z,30.74
2022-10-05T10:29:50.974Z,30.75
2022-10-05T10:30:51.002Z,30.75
2022-10-05T10:31:51.046Z,30.92
2022-10-05T10:32:50.960Z,30.92
2022-10-05T10:33:50.980Z,30.43
2022-10-05T10:34:50.971Z,30.81
2022-10-05T10:35:50.986Z,30.90
2022-10-05T10:36:51.291Z,30.78
2022-10-05T10:37:50.977Z,30.46
2022-10-05T10:38:50.974Z,30.77
2022-10-05T10:39:50.997Z,30.77
2022-10-05T10:40:51.004Z,31.20
2022-10-05T10:41:50.993Z,30.75
2022-10-05T10:42:50.990Z,30.83
2022-10-05T10:43:51.004Z,30.91
2022-10-05T10:44:51.015Z,30.91
2022-10-05T10:46:51.620Z,30.96
2022-10-05T10:47:50.997Z,30.96
2022-10-05T10:48:51.018Z,31.11
2022-10-05T10:49:51.025Z,31.23
2022-10-05T10:50:51.018Z,31.49
2022-10-05T10:51:55.356Z,31.47
2022-10-05T10:52:51.002Z,31.47
2022-10-05T10:53:51.023Z,31.70
2022-10-05T10:54:51.024Z,31.70
2022-10-05T10:55:51.020Z,31.92
2022-10-05T10:56:51.489Z,32.28
2022-10-05T10:57:51.020Z,32.28
2022-10-05T10:58:51.045Z,33.60
2022-10-05T11:00:51.030Z,33.58
2022-10-05T11:01:51.668Z,33.75
2022-10-05T11:02:51.106Z,33.75
2022-10-05T11:03:51.072Z,33.71
2022-10-05T11:04:51.052Z,33.71
2022-10-05T11:05:51.057Z,33.80
2022-10-05T11:06:51.060Z,33.80
2022-10-05T11:07:51.067Z,33.17
2022-10-05T11:08:51.052Z,33.17
2022-10-05T11:09:51.098Z,33.01
2022-10-05T11:10:51.086Z,33.36
2022-10-05T11:11:51.398Z,33.55
2022-10-05T11:12:51.074Z,33.70
2022-10-05T11:13:51.073Z,33.64
2022-10-05T11:14:51.070Z,33.74
2022-10-05T11:15:51.260Z,33.74
2022-10-05T11:16:51.550Z,33.98
2022-10-05T11:17:51.100Z,33.98
2022-10-05T11:18:51.088Z,33.98
2022-10-05T11:20:51.083Z,33.89
2022-10-05T11:21:51.087Z,33.89
2022-10-05T11:22:51.102Z,33.13
2022-10-05T11:23:51.089Z,33.42
2022-10-05T11:24:51.098Z,33.75
2022-10-05T11:25:51.090Z,33.75
2022-10-05T11:26:51.606Z,33.70
2022-10-05T11:27:51.121Z,33.70
2022-10-05T11:28:55.656Z,33.83
2022-10-05T11:29:51.103Z,33.83
2022-10-05T11:30:51.360Z,33.92
2022-10-05T11:31:51.702Z,33.92
2022-10-05T11:32:51.139Z,33.59
2022-10-05T11:33:51.120Z,33.59
2022-10-05T11:34:51.116Z,33.75
2022-10-05T11:35:51.137Z,33.42
2022-10-05T11:36:51.129Z,33.42
2022-10-05T11:37:51.163Z,33.40
2022-10-05T11:38:51.144Z,33.30
2022-10-05T11:40:51.153Z,33.17
2022-10-05T11:41:51.405Z,33.31
2022-10-05T11:42:51.155Z,33.31
2022-10-05T11:43:51.170Z,33.44
2022-10-05T11:44:51.158Z,33.32
2022-10-05T11:45:51.143Z,33.32
2022-10-05T11:46:51.257Z,33.51
2022-10-05T11:47:51.172Z,33.37
2022-10-05T11:48:51.173Z,33.13
2022-10-05T11:49:51.178Z,32.95
2022-10-05T11:50:51.163Z,33.08
2022-10-05T11:51:51.477Z,32.85
2022-10-05T11:52:51.169Z,32.99
2022-10-05T11:53:51.206Z,32.64
2022-10-05T11:55:09.763Z,32.86
2022-10-05T11:55:51.192Z,32.88
2022-10-05T11:56:53.896Z,32.88
2022-10-05T11:57:51.193Z,33.12
2022-10-05T11:58:51.199Z,32.77
2022-10-05T11:59:51.210Z,32.77
2022-10-05T12:00:51.199Z,33.19
2022-10-05T12:01:51.197Z,33.07
2022-10-05T12:02:51.330Z,33.28
2022-10-05T12:03:51.296Z,33.28
2022-10-05T12:05:55.940Z,33.35
2022-10-05T12:06:51.655Z,33.35
2022-10-05T12:07:51.208Z,34.09
2022-10-05T12:08:51.233Z,33.72
2022-10-05T12:09:51.221Z,33.72
2022-10-05T12:10:51.265Z,34.03
2022-10-05T12:11:54.367Z,34.03
2022-10-05T12:12:51.222Z,34.11
2022-10-05T12:13:51.220Z,33.73
2022-10-05T12:15:51.327Z,33.91
2022-10-05T12:16:51.248Z,34.21
2022-10-05T12:17:51.255Z,34.43
2022-10-05T12:18:51.257Z,34.56
2022-10-05T12:20:51.273Z,34.87
2022-10-05T12:21:51.267Z,34.87
2022-10-05T12:22:51.283Z,34.86
2022-10-05T12:23:51.299Z,34.54
2022-10-05T12:24:51.247Z,34.54
2022-10-05T12:25:51.272Z,34.54
2022-10-05T12:26:51.258Z,34.05
2022-10-05T12:27:51.286Z,34.14
2022-10-05T12:28:51.263Z,34.11
2022-10-05T12:29:51.301Z,33.90
2022-10-05T12:30:51.262Z,33.90
2022-10-05T12:31:51.326Z,34.07
2022-10-05T12:33:51.337Z,34.36
2022-10-05T12:34:51.281Z,34.29
2022-10-05T12:35:51.301Z,34.29
2022-10-05T12:37:04.430Z,34.63
2022-10-05T12:37:51.297Z,34.63
2022-10-05T12:38:51.308Z,35.31
2022-10-05T12:39:51.293Z,35.35
2022-10-05T12:40:51.296Z,35.26
2022-10-05T12:41:51.316Z,35.05
2022-10-05T12:42:56.179Z,34.40
2022-10-05T12:43:51.327Z,34.40
2022-10-05T12:44:51.300Z,34.52
2022-10-05T12:45:51.364Z,34.38
2022-10-05T12:46:51.311Z,34.38
2022-10-05T12:47:53.817Z,34.62
2022-10-05T12:48:51.358Z,34.69
2022-10-05T12:49:51.351Z,34.48
2022-10-05T12:50:51.346Z,34.40
2022-10-05T12:51:51.367Z,34.40
2022-10-05T12:52:51.378Z,34.32
2022-10-05T12:53:51.344Z,34.32
2022-10-05T12:54:51.379Z,34.53
2022-10-05T12:55:51.332Z,34.64
2022-10-05T12:56:51.357Z,34.64
2022-10-05T12:57:51.366Z,34.85
2022-10-05T12:58:51.351Z,34.85
2022-10-05T12:59:51.706Z,35.07
2022-10-05T13:00:51.419Z,35.07
2022-10-05T13:01:51.438Z,34.45
2022-10-05T13:02:51.353Z,34.44
2022-10-05T13:03:51.370Z,34.44
2022-10-05T13:04:51.348Z,34.62
2022-10-05T13:05:51.357Z,35.10
2022-10-05T13:06:51.364Z,35.10
2022-10-05T13:07:51.369Z,34.65
2022-10-05T13:08:51.364Z,34.49
2022-10-05T13:09:51.363Z,34.42
2022-10-05T13:10:51.441Z,34.27
2022-10-05T13:11:51.378Z,34.58
2022-10-05T13:12:51.392Z,34.79
2022-10-05T13:13:51.397Z,34.79
2022-10-05T13:14:51.389Z,34.45
2022-10-05T13:15:51.456Z,34.58
2022-10-05T13:16:54.713Z,34.58
2022-10-05T13:17:51.410Z,34.46
2022-10-05T13:18:51.400Z,34.45
2022-10-05T13:19:56.521Z,34.54
2022-10-05T13:20:51.413Z,34.54
2022-10-05T13:21:51.420Z,34.57
2022-10-05T13:22:51.414Z,34.83
2022-10-05T13:23:55.099Z,34.83
2022-10-05T13:24:51.407Z,34.71
2022-10-05T13:25:51.425Z,34.28
2022-10-05T13:27:51.445Z,34.67
2022-10-05T13:28:51.445Z,35.71
2022-10-05T13:29:54.318Z,34.49
2022-10-05T13:32:51.492Z,34.60
2022-10-05T13:33:51.448Z,34.60
2022-10-05T13:34:51.448Z,34.75
2022-10-05T13:35:51.443Z,34.78
2022-10-05T13:36:51.438Z,34.90
2022-10-05T13:38:51.488Z,34.69
2022-10-05T13:39:51.443Z,34.69
2022-10-05T13:41:51.469Z,34.67
2022-10-05T13:42:51.468Z,34.67
2022-10-05T13:43:51.486Z,34.82
2022-10-05T13:45:55.660Z,35.13
2022-10-05T13:46:51.463Z,34.78
2022-10-05T13:47:51.507Z,34.87
2022-10-05T13:48:51.477Z,34.76
2022-10-05T13:49:51.469Z,34.71
2022-10-05T13:50:51.522Z,34.79
2022-10-05T13:51:51.581Z,34.94
2022-10-05T13:52:51.499Z,34.33
2022-10-05T13:53:51.656Z,34.43
2022-10-05T13:54:51.483Z,34.43
2022-10-05T13:55:51.502Z,34.51
2022-10-05T13:56:56.626Z,34.65
2022-10-05T13:57:51.526Z,34.61
2022-10-05T13:58:51.512Z,34.65
2022-10-05T13:59:51.520Z,34.67
2022-10-05T14:00:51.532Z,34.81
2022-10-05T14:01:51.589Z,35.15
2022-10-05T14:02:51.571Z,35.15
2022-10-05T14:03:51.523Z,35.17
2022-10-05T14:04:51.522Z,35.37
2022-10-05T14:05:55.613Z,35.54
2022-10-05T14:06:51.502Z,35.48
2022-10-05T14:07:51.535Z,35.39
2022-10-05T14:08:51.531Z,35.10
2022-10-05T14:09:51.537Z,35.08
2022-10-05T14:10:51.532Z,35.00
2022-10-05T14:11:51.530Z,34.91
2022-10-05T14:12:51.548Z,34.92
2022-10-05T14:13:51.572Z,34.92
2022-10-05T14:14:51.535Z,34.86
2022-10-05T14:16:51.639Z,34.73
2022-10-05T14:17:51.560Z,35.09
2022-10-05T14:18:51.560Z,35.09
2022-10-05T14:19:51.562Z,35.07
2022-10-05T14:20:51.570Z,35.07
2022-10-05T14:21:51.571Z,34.96
2022-10-05T14:22:51.566Z,34.96
2022-10-05T14:23:51.601Z,35.04
2022-10-05T14:24:51.576Z,35.04
2022-10-05T14:25:51.582Z,34.94
2022-10-05T14:27:51.593Z,35.00
2022-10-05T14:28:51.580Z,34.76
2022-10-05T14:29:51.586Z,34.45
2022-10-05T14:30:56.815Z,33.73
2022-10-05T14:31:51.680Z,34.33
2022-10-05T14:32:51.604Z,34.96
2022-10-05T14:33:51.592Z,34.96
2022-10-05T14:34:51.606Z,34.70
2022-10-05T14:35:51.590Z,35.61
2022-10-05T14:36:51.629Z,35.37
2022-10-05T14:37:51.632Z,34.88
2022-10-05T14:38:51.622Z,34.46
2022-10-05T14:39:51.604Z,34.96
2022-10-05T14:40:51.602Z,34.96
2022-10-05T14:41:51.629Z,35.85
2022-10-05T14:43:51.655Z,34.98
2022-10-05T14:44:51.628Z,35.10
2022-10-05T14:45:51.694Z,34.98
2022-10-05T14:46:51.629Z,35.26
2022-10-05T14:47:51.630Z,35.00
2022-10-05T14:48:51.624Z,35.00
2022-10-05T14:49:51.627Z,35.19
2022-10-05T14:50:51.758Z,35.26
2022-10-05T14:51:51.639Z,35.26
2022-10-05T14:52:52.038Z,34.85
2022-10-05T14:53:51.649Z,35.20
2022-10-05T14:54:51.652Z,34.75
2022-10-05T14:56:51.646Z,34.70
2022-10-05T14:57:51.658Z,34.76
2022-10-05T14:58:51.651Z,34.66
2022-10-05T15:00:51.706Z,34.28
2022-10-05T15:01:51.739Z,34.39
2022-10-05T15:02:51.688Z,34.59
2022-10-05T15:03:51.664Z,34.62
2022-10-05T15:04:51.671Z,34.71
2022-10-05T15:05:51.669Z,34.62
2022-10-05T15:06:55.289Z,34.87
2022-10-05T15:07:52.308Z,34.71
2022-10-05T15:08:51.680Z,34.71
2022-10-05T15:09:51.683Z,34.65
2022-10-05T15:10:51.677Z,34.98
2022-10-05T15:11:51.687Z,34.92
2022-10-05T15:12:51.690Z,35.03
2022-10-05T15:13:51.799Z,34.95
2022-10-05T15:15:51.707Z,34.87
2022-10-05T15:16:51.788Z,34.87
2022-10-05T15:17:51.697Z,34.95
2022-10-05T15:18:51.724Z,35.53
2022-10-05T15:19:51.731Z,35.53
2022-10-05T15:20:51.703Z,35.57
2022-10-05T15:21:51.713Z,35.32
2022-10-05T15:23:51.746Z,35.39
2022-10-05T15:24:51.755Z,35.44
2022-10-05T15:25:51.716Z,35.44
2022-10-05T15:26:51.740Z,35.72
2022-10-05T15:27:51.725Z,35.42
2022-10-05T15:28:51.740Z,35.25
2022-10-05T15:29:52.528Z,35.25
2022-10-05T15:31:51.748Z,35.28
2022-10-05T15:33:51.754Z,35.78
2022-10-05T15:36:51.787Z,35.09
2022-10-05T15:37:51.791Z,35.50
2022-10-05T15:38:51.779Z,35.72
2022-10-05T15:39:51.776Z,35.63
2022-10-05T15:40:51.778Z,35.94
2022-10-05T15:41:51.757Z,35.94
2022-10-05T15:42:51.791Z,35.95
2022-10-05T15:43:51.799Z,35.95
2022-10-05T15:44:52.535Z,35.47
2022-10-05T15:45:53.938Z,35.64
2022-10-05T15:46:51.779Z,35.75
2022-10-05T15:47:51.770Z,35.75
2022-10-05T15:48:51.815Z,35.47
2022-10-05T15:49:51.796Z,35.54
2022-10-05T15:51:51.817Z,35.65
2022-10-05T15:53:51.810Z,35.88
2022-10-05T15:54:51.824Z,35.88
2022-10-05T15:55:51.823Z,36.09
2022-10-05T15:56:51.813Z,36.09
2022-10-05T15:57:51.827Z,36.12
2022-10-05T15:58:51.819Z,36.23
2022-10-05T15:59:51.832Z,36.69
2022-10-05T16:00:51.888Z,36.44
2022-10-05T16:01:51.817Z,36.44
2022-10-05T16:02:51.892Z,36.56
2022-10-05T16:03:51.847Z,36.54
2022-10-05T16:04:51.833Z,36.29
2022-10-05T16:05:51.833Z,36.37
2022-10-05T16:06:51.841Z,36.25
2022-10-05T16:07:51.842Z,36.29
2022-10-05T16:08:51.871Z,36.46
2022-10-05T16:09:51.852Z,36.52
2022-10-05T16:11:51.840Z,36.64
2022-10-05T16:12:51.860Z,36.80
2022-10-05T16:13:51.862Z,36.95
2022-10-05T16:14:51.861Z,37.12
2022-10-05T16:16:51.895Z,37.30
2022-10-05T16:17:51.860Z,37.68
2022-10-05T16:19:52.000Z,37.72
2022-10-05T16:20:51.863Z,37.83
2022-10-05T16:21:52.841Z,38.08
2022-10-05T16:22:51.877Z,38.08
2022-10-05T16:23:51.877Z,38.51
2022-10-05T16:24:51.896Z,38.51
2022-10-05T16:25:51.911Z,38.59
2022-10-05T16:26:51.877Z,38.59
2022-10-05T16:27:51.910Z,38.68
2022-10-05T16:28:51.972Z,38.68
2022-10-05T16:29:51.904Z,38.79
2022-10-05T16:30:51.951Z,39.08
2022-10-05T16:31:51.903Z,39.26
2022-10-05T16:32:51.916Z,39.20
2022-10-05T16:33:51.905Z,39.19
2022-10-05T16:34:51.906Z,39.32
2022-10-05T16:35:51.920Z,39.46
2022-10-05T16:36:51.919Z,39.25
2022-10-05T16:37:51.908Z,39.31
2022-10-05T16:38:51.915Z,39.38
2022-10-05T16:39:51.940Z,39.38
2022-10-05T16:40:51.920Z,39.44
2022-10-05T16:41:51.923Z,39.35
2022-10-05T16:42:51.933Z,39.35
2022-10-05T16:43:51.934Z,39.79
2022-10-05T16:44:51.941Z,40.39
2022-10-05T16:45:51.991Z,40.40
2022-10-05T16:46:52.021Z,40.42
2022-10-05T16:47:51.936Z,40.32
2022-10-05T16:48:51.957Z,40.43
2022-10-05T16:49:51.959Z,40.57
2022-10-05T16:50:51.981Z,40.63
2022-10-05T16:51:51.967Z,40.63
2022-10-05T16:52:51.967Z,40.44
2022-10-05T16:53:51.952Z,40.44
2022-10-05T16:54:51.957Z,40.75
2022-10-05T16:55:51.966Z,40.87
2022-10-05T16:56:51.979Z,40.98
2022-10-05T16:57:51.980Z,41.08
2022-10-05T16:58:53.140Z,41.20
2022-10-05T16:59:51.997Z,41.08
2022-10-05T17:00:52.034Z,41.08
2022-10-05T17:01:52.109Z,41.27
2022-10-05T17:02:52.044Z,41.27
2022-10-05T17:03:51.980Z,41.51
2022-10-05T17:04:51.993Z,41.28
2022-10-05T17:05:51.976Z,41.28
2022-10-05T17:06:52.007Z,41.28
2022-10-05T17:07:52.004Z,41.48
2022-10-05T17:08:51.983Z,41.53
2022-10-05T17:09:52.003Z,41.60
2022-10-05T17:10:51.998Z,41.70
2022-10-05T17:11:51.999Z,42.05
2022-10-05T17:12:51.998Z,42.39
2022-10-05T17:13:52.016Z,42.86
2022-10-05T17:14:52.019Z,42.86
2022-10-05T17:16:52.013Z,42.94
2022-10-05T17:17:52.113Z,43.18
2022-10-05T17:18:52.013Z,43.15
2022-10-05T17:19:52.036Z,43.20
2022-10-05T17:20:52.025Z,43.20
2022-10-05T17:21:52.064Z,43.28
2022-10-05T17:22:52.037Z,43.28
2022-10-05T17:23:52.035Z,43.11
2022-10-05T17:24:52.035Z,43.22
2022-10-05T17:25:52.053Z,43.38
2022-10-05T17:26:52.054Z,43.38
2022-10-05T17:29:52.093Z,43.42
2022-10-05T17:30:52.109Z,43.43
2022-10-05T17:31:52.057Z,43.43
2022-10-05T17:32:52.072Z,43.41
2022-10-05T17:34:52.081Z,43.51
2022-10-05T17:35:53.470Z,43.58
2022-10-05T17:36:54.624Z,43.62
2022-10-05T17:37:52.080Z,43.62
2022-10-05T17:38:52.077Z,44.24
2022-10-05T17:39:52.088Z,44.24
2022-10-05T17:40:52.103Z,44.91